T7RCW LIRA-LDDU
Flight info
| Callsign | T7RCW |
|---|---|
| Flight time | 0h 45m |
| Altitude | 19000 |
| Route | OKUNO7Z/15 OKUNO L5 ATRUP M169 ORAKA |
| Aircraft | C25C/M-SDE2E3FGHRWXY/LB1 |
Departure
| Time | 2026-04-27 16:22 |
|---|---|
| Airport | Ciampino–G. B. Pastine International Airport (LIRA) |
Arrival
| Time | 2026-04-27 17:07 |
|---|---|
| Airport | Dubrovnik Ruđer Bošković Airport (LDDU) |
| Time | Latitude | Longitude | Altitude | Speed | Heading |
|---|---|---|---|---|---|
| 2026-04-27 16:12 | 41.79649 | 12.59300 | 393 ft | 0 kts | 49° |
| 2026-04-27 16:18 | 41.79754 | 12.59299 | 390 ft | 11 kts | 5° |
| 2026-04-27 16:19 | 41.79813 | 12.59342 | 388 ft | 8 kts | 33° |
| 2026-04-27 16:19 | 41.79870 | 12.59326 | 387 ft | 10 kts | 333° |
| 2026-04-27 16:20 | 41.80137 | 12.59141 | 375 ft | 18 kts | 333° |
| 2026-04-27 16:20 | 41.80258 | 12.59059 | 366 ft | 21 kts | 333° |
| 2026-04-27 16:20 | 41.80523 | 12.58876 | 356 ft | 19 kts | 333° |
| 2026-04-27 16:21 | 41.80605 | 12.58819 | 360 ft | 11 kts | 332° |
| 2026-04-27 16:21 | 41.80752 | 12.58918 | 358 ft | 11 kts | 136° |
| 2026-04-27 16:22 | 41.80662 | 12.58985 | 354 ft | 28 kts | 153° |
| 2026-04-27 16:22 | 41.79180 | 12.59920 | 1022 ft | 179 kts | 160° |
| 2026-04-27 16:22 | 41.77930 | 12.60340 | 1857 ft | 200 kts | 183° |
| 2026-04-27 16:23 | 41.76497 | 12.60067 | 2736 ft | 211 kts | 200° |
| 2026-04-27 16:23 | 41.74266 | 12.57548 | 4284 ft | 226 kts | 244° |
| 2026-04-27 16:23 | 41.73707 | 12.55576 | 5203 ft | 225 kts | 250° |
| 2026-04-27 16:24 | 41.73165 | 12.53593 | 6294 ft | 228 kts | 250° |
| 2026-04-27 16:24 | 41.72037 | 12.49556 | 8589 ft | 236 kts | 241° |
| 2026-04-27 16:25 | 41.70516 | 12.45736 | 10651 ft | 253 kts | 274° |
| 2026-04-27 16:25 | 41.72792 | 12.42031 | 11912 ft | 295 kts | 341° |
| 2026-04-27 16:26 | 41.76870 | 12.43276 | 13200 ft | 330 kts | 41° |
| 2026-04-27 16:26 | 41.79447 | 12.48432 | 14908 ft | 340 kts | 58° |
| 2026-04-27 16:27 | 41.82171 | 12.53609 | 16650 ft | 342 kts | 47° |
| 2026-04-27 16:27 | 41.86876 | 12.61413 | 18068 ft | 382 kts | 50° |
| 2026-04-27 16:28 | 41.90199 | 12.67070 | 18593 ft | 385 kts | 49° |
| 2026-04-27 16:28 | 41.93517 | 12.72706 | 18950 ft | 386 kts | 50° |
| 2026-04-27 16:29 | 41.98574 | 12.81335 | 19074 ft | 397 kts | 50° |
| 2026-04-27 16:30 | 42.01962 | 12.87137 | 19087 ft | 392 kts | 50° |
| 2026-04-27 16:30 | 42.05317 | 12.92886 | 19090 ft | 389 kts | 50° |
| 2026-04-27 16:31 | 42.20477 | 13.22370 | 19094 ft | 387 kts | 60° |
| 2026-04-27 16:31 | 42.30495 | 13.48128 | 19098 ft | 387 kts | 60° |
| 2026-04-27 16:32 | 42.37299 | 13.75576 | 19084 ft | 390 kts | 76° |
| 2026-04-27 16:32 | 42.39420 | 13.89951 | 19080 ft | 390 kts | 77° |
| 2026-04-27 16:33 | 42.43600 | 14.18702 | 19082 ft | 389 kts | 80° |
| 2026-04-27 16:33 | 42.44282 | 14.33364 | 19082 ft | 390 kts | 84° |
| 2026-04-27 16:33 | 42.44930 | 14.48041 | 19083 ft | 390 kts | 85° |
| 2026-04-27 16:33 | 42.45557 | 14.62671 | 19080 ft | 390 kts | 85° |
| 2026-04-27 16:34 | 42.46166 | 14.77339 | 19079 ft | 390 kts | 85° |
| 2026-04-27 16:34 | 42.46696 | 14.90545 | 19080 ft | 389 kts | 85° |
| 2026-04-27 16:34 | 42.46860 | 14.94715 | 19080 ft | 389 kts | 86° |
| 2026-04-27 16:34 | 42.47005 | 14.98384 | 19079 ft | 391 kts | 85° |
| 2026-04-27 16:35 | 42.47144 | 15.02030 | 19079 ft | 394 kts | 86° |
| 2026-04-27 16:35 | 42.47290 | 15.05751 | 19079 ft | 397 kts | 86° |
| 2026-04-27 16:35 | 42.47574 | 15.13247 | 19074 ft | 400 kts | 86° |
| 2026-04-27 16:36 | 42.47713 | 15.17014 | 19076 ft | 401 kts | 86° |
| 2026-04-27 16:36 | 42.47855 | 15.20791 | 19075 ft | 402 kts | 86° |
| 2026-04-27 16:36 | 42.47997 | 15.24579 | 19077 ft | 403 kts | 85° |
| 2026-04-27 16:36 | 42.48148 | 15.28365 | 19074 ft | 403 kts | 86° |
| 2026-04-27 16:37 | 42.48295 | 15.32158 | 19076 ft | 403 kts | 85° |
| 2026-04-27 16:37 | 42.48435 | 15.35939 | 19075 ft | 401 kts | 86° |
| 2026-04-27 16:37 | 42.48577 | 15.39700 | 19077 ft | 399 kts | 86° |
| 2026-04-27 16:37 | 42.48714 | 15.43443 | 19079 ft | 397 kts | 86° |
| 2026-04-27 16:38 | 42.48855 | 15.47171 | 19079 ft | 396 kts | 86° |
| 2026-04-27 16:38 | 42.48987 | 15.50889 | 19077 ft | 395 kts | 86° |
| 2026-04-27 16:38 | 42.49124 | 15.54599 | 19075 ft | 394 kts | 86° |
| 2026-04-27 16:38 | 42.49254 | 15.58302 | 19073 ft | 393 kts | 86° |
| 2026-04-27 16:39 | 42.49388 | 15.62000 | 19075 ft | 393 kts | 86° |
| 2026-04-27 16:39 | 42.49517 | 15.65692 | 19072 ft | 392 kts | 86° |
| 2026-04-27 16:39 | 42.49646 | 15.69386 | 19074 ft | 393 kts | 86° |
| 2026-04-27 16:39 | 42.49775 | 15.73092 | 19074 ft | 395 kts | 86° |
| 2026-04-27 16:40 | 42.49901 | 15.76814 | 19074 ft | 396 kts | 86° |
| 2026-04-27 16:40 | 42.50012 | 15.80549 | 19075 ft | 397 kts | 88° |
| 2026-04-27 16:40 | 42.50002 | 15.84294 | 19075 ft | 398 kts | 90° |
| 2026-04-27 16:40 | 42.49967 | 15.88048 | 19078 ft | 399 kts | 89° |
| 2026-04-27 16:41 | 42.49982 | 15.91804 | 19078 ft | 399 kts | 88° |
| 2026-04-27 16:41 | 42.50013 | 15.95567 | 19078 ft | 399 kts | 88° |
| 2026-04-27 16:41 | 42.50022 | 15.99330 | 19079 ft | 400 kts | 89° |
| 2026-04-27 16:41 | 42.50024 | 16.03099 | 19079 ft | 400 kts | 89° |
| 2026-04-27 16:42 | 42.50026 | 16.06867 | 19079 ft | 399 kts | 89° |
| 2026-04-27 16:42 | 42.50034 | 16.09348 | 19079 ft | 396 kts | 89° |
| 2026-04-27 16:42 | 42.50038 | 16.13053 | 19078 ft | 391 kts | 89° |
| 2026-04-27 16:42 | 42.50044 | 16.16726 | 19076 ft | 388 kts | 89° |
| 2026-04-27 16:43 | 42.50044 | 16.21540 | 19073 ft | 384 kts | 89° |
| 2026-04-27 16:43 | 42.50043 | 16.25153 | 19073 ft | 382 kts | 89° |
| 2026-04-27 16:43 | 42.50044 | 16.27579 | 19072 ft | 381 kts | 89° |
| 2026-04-27 16:43 | 42.50043 | 16.31164 | 19071 ft | 380 kts | 89° |
| 2026-04-27 16:44 | 42.50041 | 16.34734 | 19068 ft | 378 kts | 89° |
| 2026-04-27 16:44 | 42.50036 | 16.38298 | 19066 ft | 378 kts | 89° |
| 2026-04-27 16:44 | 42.50034 | 16.41857 | 19066 ft | 380 kts | 89° |
| 2026-04-27 16:44 | 42.50025 | 16.45492 | 19063 ft | 391 kts | 89° |
| 2026-04-27 16:45 | 42.50021 | 16.49207 | 19071 ft | 398 kts | 89° |
| 2026-04-27 16:45 | 42.50009 | 16.52980 | 19075 ft | 402 kts | 89° |
| 2026-04-27 16:45 | 42.50001 | 16.56787 | 19078 ft | 406 kts | 89° |
| 2026-04-27 16:45 | 42.49988 | 16.60622 | 19082 ft | 405 kts | 89° |
| 2026-04-27 16:46 | 42.49976 | 16.64402 | 19082 ft | 400 kts | 89° |
| 2026-04-27 16:46 | 42.49963 | 16.68167 | 19069 ft | 400 kts | 89° |
| 2026-04-27 16:46 | 42.49948 | 16.71932 | 18836 ft | 397 kts | 89° |
| 2026-04-27 16:46 | 42.49934 | 16.75601 | 18466 ft | 392 kts | 89° |
| 2026-04-27 16:47 | 42.49914 | 16.79320 | 18046 ft | 387 kts | 89° |
| 2026-04-27 16:47 | 42.49899 | 16.82901 | 17625 ft | 383 kts | 89° |
| 2026-04-27 16:47 | 42.49878 | 16.86497 | 17202 ft | 380 kts | 89° |
| 2026-04-27 16:47 | 42.49862 | 16.90076 | 16784 ft | 380 kts | 89° |
| 2026-04-27 16:48 | 42.49838 | 16.93652 | 16372 ft | 379 kts | 89° |
| 2026-04-27 16:48 | 42.49818 | 16.97218 | 15974 ft | 378 kts | 89° |
| 2026-04-27 16:48 | 42.49793 | 17.00779 | 15575 ft | 377 kts | 89° |
| 2026-04-27 16:49 | 42.49745 | 17.07866 | 14798 ft | 374 kts | 89° |
| 2026-04-27 16:49 | 42.49719 | 17.11373 | 14414 ft | 371 kts | 90° |
| 2026-04-27 16:49 | 42.49693 | 17.14864 | 14035 ft | 369 kts | 89° |
| 2026-04-27 16:49 | 42.49665 | 17.18325 | 13628 ft | 366 kts | 90° |
| 2026-04-27 16:50 | 42.49638 | 17.21758 | 13208 ft | 363 kts | 90° |
| 2026-04-27 16:50 | 42.49607 | 17.25159 | 12792 ft | 359 kts | 90° |
| 2026-04-27 16:50 | 42.49580 | 17.28524 | 12382 ft | 355 kts | 90° |
| 2026-04-27 16:50 | 42.49546 | 17.31847 | 11976 ft | 351 kts | 90° |
| 2026-04-27 16:51 | 42.49518 | 17.35139 | 11580 ft | 348 kts | 90° |
| 2026-04-27 16:51 | 42.49483 | 17.38388 | 11293 ft | 342 kts | 90° |
| 2026-04-27 16:51 | 42.49455 | 17.41556 | 11061 ft | 329 kts | 90° |
| 2026-04-27 16:51 | 42.49420 | 17.44579 | 10859 ft | 313 kts | 90° |
| 2026-04-27 16:52 | 42.49393 | 17.47456 | 10661 ft | 299 kts | 90° |
| 2026-04-27 16:52 | 42.49360 | 17.50222 | 10456 ft | 289 kts | 90° |
| 2026-04-27 16:52 | 42.49333 | 17.52919 | 10256 ft | 284 kts | 90° |
| 2026-04-27 16:52 | 42.49302 | 17.55569 | 10055 ft | 279 kts | 90° |
| 2026-04-27 16:53 | 42.49272 | 17.58183 | 9850 ft | 277 kts | 91° |
| 2026-04-27 16:53 | 42.49242 | 17.60794 | 9637 ft | 278 kts | 90° |
| 2026-04-27 16:53 | 42.49209 | 17.63381 | 9424 ft | 278 kts | 90° |
| 2026-04-27 16:53 | 42.49180 | 17.66001 | 9219 ft | 278 kts | 90° |
| 2026-04-27 16:54 | 42.49144 | 17.68612 | 9009 ft | 277 kts | 90° |
| 2026-04-27 16:54 | 42.49115 | 17.71216 | 8805 ft | 276 kts | 90° |
| 2026-04-27 16:54 | 42.49078 | 17.73820 | 8599 ft | 277 kts | 90° |
| 2026-04-27 16:54 | 42.49048 | 17.76427 | 8395 ft | 277 kts | 90° |
| 2026-04-27 16:55 | 42.49009 | 17.79026 | 8194 ft | 275 kts | 90° |
| 2026-04-27 16:55 | 42.48978 | 17.81604 | 7995 ft | 273 kts | 90° |
| 2026-04-27 16:55 | 42.48930 | 17.85026 | 7738 ft | 273 kts | 90° |
| 2026-04-27 16:55 | 42.48870 | 17.89195 | 7353 ft | 275 kts | 90° |
| 2026-04-27 16:56 | 42.48834 | 17.91779 | 6999 ft | 273 kts | 90° |
| 2026-04-27 16:56 | 42.48796 | 17.94333 | 6644 ft | 270 kts | 89° |
| 2026-04-27 16:56 | 42.48757 | 17.96867 | 6278 ft | 269 kts | 90° |
| 2026-04-27 16:56 | 42.48722 | 17.99394 | 5919 ft | 268 kts | 89° |
| 2026-04-27 16:57 | 42.48680 | 18.01913 | 5569 ft | 268 kts | 90° |
| 2026-04-27 16:57 | 42.48645 | 18.04437 | 5217 ft | 269 kts | 90° |
| 2026-04-27 16:57 | 42.48601 | 18.06981 | 4863 ft | 271 kts | 90° |
| 2026-04-27 16:57 | 42.48565 | 18.09549 | 4498 ft | 273 kts | 90° |
| 2026-04-27 16:58 | 42.48510 | 18.12126 | 4137 ft | 274 kts | 92° |
| 2026-04-27 16:58 | 42.47964 | 18.14505 | 4027 ft | 258 kts | 119° |
| 2026-04-27 16:58 | 42.47157 | 18.16541 | 4008 ft | 234 kts | 115° |
| 2026-04-27 16:58 | 42.46424 | 18.18448 | 4002 ft | 224 kts | 117° |
| 2026-04-27 16:59 | 42.45687 | 18.20291 | 3998 ft | 221 kts | 117° |
| 2026-04-27 16:59 | 42.44962 | 18.22102 | 4004 ft | 217 kts | 117° |
| 2026-04-27 16:59 | 42.44253 | 18.23896 | 3965 ft | 216 kts | 117° |
| 2026-04-27 16:59 | 42.43541 | 18.25693 | 3865 ft | 215 kts | 117° |
| 2026-04-27 17:00 | 42.42404 | 18.28555 | 3862 ft | 203 kts | 117° |
| 2026-04-27 17:00 | 42.41506 | 18.30812 | 3859 ft | 204 kts | 117° |
| 2026-04-27 17:00 | 42.40838 | 18.32495 | 3854 ft | 203 kts | 118° |
| 2026-04-27 17:01 | 42.40168 | 18.34168 | 3859 ft | 203 kts | 117° |
| 2026-04-27 17:01 | 42.39515 | 18.35808 | 3879 ft | 194 kts | 117° |
| 2026-04-27 17:01 | 42.38980 | 18.37438 | 3872 ft | 186 kts | 99° |
| 2026-04-27 17:01 | 42.39065 | 18.39139 | 3801 ft | 180 kts | 71° |
| 2026-04-27 17:02 | 42.39694 | 18.40521 | 3644 ft | 168 kts | 42° |
| 2026-04-27 17:02 | 42.40617 | 18.41437 | 3505 ft | 164 kts | 22° |
| 2026-04-27 17:02 | 42.41720 | 18.41725 | 3355 ft | 161 kts | 358° |
| 2026-04-27 17:02 | 42.42775 | 18.41372 | 3213 ft | 159 kts | 333° |
| 2026-04-27 17:03 | 42.43681 | 18.40537 | 3084 ft | 157 kts | 323° |
| 2026-04-27 17:03 | 42.44571 | 18.39673 | 2942 ft | 157 kts | 323° |
| 2026-04-27 17:03 | 42.45466 | 18.38799 | 2808 ft | 156 kts | 324° |
| 2026-04-27 17:03 | 42.46329 | 18.37955 | 2668 ft | 155 kts | 323° |
| 2026-04-27 17:04 | 42.47223 | 18.37089 | 2442 ft | 160 kts | 323° |
| 2026-04-27 17:04 | 42.48095 | 18.36237 | 2438 ft | 150 kts | 324° |
| 2026-04-27 17:04 | 42.48953 | 18.35399 | 2215 ft | 155 kts | 323° |
| 2026-04-27 17:04 | 42.49841 | 18.34538 | 1947 ft | 158 kts | 323° |
| 2026-04-27 17:05 | 42.50722 | 18.33640 | 1829 ft | 152 kts | 321° |
| 2026-04-27 17:05 | 42.51577 | 18.32994 | 2097 ft | 134 kts | 337° |
| 2026-04-27 17:05 | 42.52476 | 18.32622 | 2086 ft | 132 kts | 341° |
| 2026-04-27 17:05 | 42.53256 | 18.32189 | 1957 ft | 114 kts | 330° |
| 2026-04-27 17:06 | 42.53914 | 18.31613 | 1749 ft | 112 kts | 321° |
| 2026-04-27 17:06 | 42.54477 | 18.30902 | 1441 ft | 109 kts | 310° |
| 2026-04-27 17:06 | 42.54868 | 18.30046 | 1141 ft | 105 kts | 297° |
| 2026-04-27 17:06 | 42.55200 | 18.29182 | 851 ft | 101 kts | 296° |
| 2026-04-27 17:07 | 42.55529 | 18.28362 | 601 ft | 97 kts | 298° |
| 2026-04-27 17:07 | 42.55827 | 18.27612 | 494 ft | 80 kts | 297° |
| 2026-04-27 17:07 | 42.56049 | 18.27051 | 500 ft | 57 kts | 297° |
| 2026-04-27 17:07 | 42.56169 | 18.26737 | 503 ft | 19 kts | 289° |
| 2026-04-27 17:08 | 42.56150 | 18.26606 | 504 ft | 11 kts | 242° |
| 2026-04-27 17:08 | 42.56128 | 18.26550 | 504 ft | 0 kts | 245° |
| 2026-04-27 17:09 | 42.56126 | 18.26544 | 504 ft | 1 kts | 243° |
| 2026-04-27 17:09 | 42.56124 | 18.26540 | 504 ft | 0 kts | 240° |
| 2026-04-27 17:10 | 42.56118 | 18.26530 | 504 ft | 4 kts | 221° |
| 2026-04-27 17:10 | 42.56085 | 18.26521 | 504 ft | 6 kts | 166° |
| 2026-04-27 17:10 | 42.56047 | 18.26577 | 503 ft | 11 kts | 119° |
| 2026-04-27 17:10 | 42.56008 | 18.26674 | 503 ft | 13 kts | 118° |
| 2026-04-27 17:11 | 42.55962 | 18.26792 | 502 ft | 15 kts | 117° |
| 2026-04-27 17:11 | 42.55849 | 18.27077 | 499 ft | 12 kts | 117° |
| 2026-04-27 17:11 | 42.55808 | 18.27178 | 496 ft | 10 kts | 122° |
| 2026-04-27 17:12 | 42.55734 | 18.27131 | 497 ft | 6 kts | 296° |
| 2026-04-27 17:12 | 42.55765 | 18.27130 | 498 ft | 5 kts | 25° |
| 2026-04-27 17:12 | 42.55772 | 18.27134 | 498 ft | 0 kts | 23° |